Time;durP1;ratioP1;P1;durP2;ratioP2;P2;SDS_P1;SDS_P2;PMS_P1;PMS_P2;Temp;Humidity;BMP_temperature;BMP_pressure;BME280_temperature;BME280_humidity;BME280_pressure;Samples;Min_cycle;Max_cycle;Signal;HPM_P1;HPM_P2
2023/03/18 00:01:33;;;;;;;;;;;12.40;75.50;;;;;;4973642;28;19921;-71
2023/03/18 00:03:59;;;;;;;;;;;12.40;75.60;;;;;;4973663;28;19934;-71
2023/03/18 00:06:26;;;;;;;;;;;12.30;75.60;;;;;;4973497;28;19914;-71
2023/03/18 00:08:51;;;;;;;;;;;12.20;75.70;;;;;;4972417;28;20008;-71
2023/03/18 00:11:18;;;;;;;;;;;12.30;75.90;;;;;;4973695;28;20099;-71
2023/03/18 00:13:43;;;;;;;;;;;12.30;76.00;;;;;;4973652;28;19993;-71
2023/03/18 00:16:10;;;;;;;;;;;12.20;76.00;;;;;;4973669;28;19956;-71
2023/03/18 00:18:36;;;;;;;;;;;12.10;76.00;;;;;;4973476;28;19918;-71
2023/03/18 00:21:02;;;;;;;;;;;12.10;76.00;;;;;;4972144;28;19964;-72
2023/03/18 00:23:28;;;;;;;;;;;12.10;76.10;;;;;;4973449;28;19906;-72
2023/03/18 00:25:55;;;;;;;;;;;12.10;76.20;;;;;;4973394;28;19906;-71
2023/03/18 00:28:21;;;;;;;;;;;12.00;76.30;;;;;;4973205;28;19998;-71
2023/03/18 00:30:48;;;;;;;;;;;12.00;76.30;;;;;;4973620;28;19914;-71
2023/03/18 00:33:14;;;;;;;;;;;11.90;76.30;;;;;;4973325;28;19906;-71
2023/03/18 00:35:40;;;;;;;;;;;12.00;76.30;;;;;;4972170;28;19965;-71
2023/03/18 00:38:07;;;;;;;;;;;11.90;76.30;;;;;;4973028;28;19968;-71
2023/03/18 00:43:14;;;;;;;;;;;11.90;76.40;;;;;;4973385;28;19925;-71
2023/03/18 00:45:39;;;;;;;;;;;11.90;76.30;;;;;;4973169;28;19914;-71
2023/03/18 00:48:06;;;;;;;;;;;11.90;76.30;;;;;;4973267;28;19914;-71
2023/03/18 00:50:33;;;;;;;;;;;11.90;76.20;;;;;;4973083;28;20041;-71
2023/03/18 00:52:59;;;;;;;;;;;11.90;76.20;;;;;;4973443;28;19914;-71
2023/03/18 00:55:26;;;;;;;;;;;11.90;76.20;;;;;;4971577;28;20316;-71
2023/03/18 00:57:52;;;;;;;;;;;11.90;76.20;;;;;;4972757;28;19968;-72
2023/03/18 01:00:18;;;;;;;;;;;11.90;76.20;;;;;;4972728;28;19949;-71
2023/03/18 01:02:44;;;;;;;;;;;11.90;76.20;;;;;;4972595;28;19913;-71
2023/03/18 01:05:11;;;;;;;;;;;12.00;76.30;;;;;;4972387;28;19906;-71
2023/03/18 01:07:37;;;;;;;;;;;11.80;76.30;;;;;;4972365;28;19910;-71
2023/03/18 01:10:03;;;;;;;;;;;11.80;76.30;;;;;;4972341;28;19961;-71
2023/03/18 01:12:28;;;;;;;;;;;11.80;76.30;;;;;;4971807;28;19996;-71
2023/03/18 01:14:54;;;;;;;;;;;12.00;76.50;;;;;;4972445;28;19932;-71
2023/03/18 01:17:20;;;;;;;;;;;11.80;76.40;;;;;;4972454;28;19953;-71
2023/03/18 01:19:47;;;;;;;;;;;11.80;76.40;;;;;;4951706;28;19917;-71
2023/03/18 01:22:13;;;;;;;;;;;11.80;76.40;;;;;;4955112;28;19906;-71
2023/03/18 01:24:39;;;;;;;;;;;11.80;76.50;;;;;;4972591;28;19933;-71
2023/03/18 01:27:05;;;;;;;;;;;11.80;76.50;;;;;;4972499;28;20286;-71
2023/03/18 01:29:30;;;;;;;;;;;11.80;76.60;;;;;;4972509;28;19918;-71
2023/03/18 01:31:56;;;;;;;;;;;11.70;76.60;;;;;;4972327;28;19925;-71
2023/03/18 01:34:22;;;;;;;;;;;11.70;76.60;;;;;;4972140;28;20456;-71
2023/03/18 01:36:48;;;;;;;;;;;11.70;76.70;;;;;;4972068;28;20368;-71
2023/03/18 01:39:14;;;;;;;;;;;11.70;76.70;;;;;;4971995;28;19925;-71
2023/03/18 01:41:40;;;;;;;;;;;11.60;76.80;;;;;;4972003;28;19921;-71
2023/03/18 01:44:12;;;;;;;;;;;11.60;76.80;;;;;;4971954;28;20291;-71
2023/03/18 01:46:39;;;;;;;;;;;11.70;76.90;;;;;;4971912;28;19914;-71
2023/03/18 01:49:09;;;;;;;;;;;11.60;76.90;;;;;;4972005;28;19914;-72
2023/03/18 01:51:34;;;;;;;;;;;11.60;76.90;;;;;;4972204;28;20359;-71
2023/03/18 01:54:02;;;;;;;;;;;11.60;76.90;;;;;;4971999;28;19994;-71
2023/03/18 01:56:28;;;;;;;;;;;11.60;77.00;;;;;;4972318;28;19906;-71
2023/03/18 01:58:56;;;;;;;;;;;11.60;77.00;;;;;;4971909;28;19918;-71
2023/03/18 02:01:28;;;;;;;;;;;11.60;77.00;;;;;;4972214;28;20000;-71
2023/03/18 02:03:55;;;;;;;;;;;11.60;77.10;;;;;;4971813;28;19957;-71
2023/03/18 02:06:21;;;;;;;;;;;11.60;77.10;;;;;;4971994;28;19956;-71
2023/03/18 02:08:46;;;;;;;;;;;11.60;77.10;;;;;;4972183;28;19910;-71
2023/03/18 02:11:12;;;;;;;;;;;11.60;77.10;;;;;;4970744;28;20037;-71
2023/03/18 02:13:40;;;;;;;;;;;11.50;77.10;;;;;;4971857;28;19939;-71
2023/03/18 02:16:08;;;;;;;;;;;11.50;77.20;;;;;;4971844;28;20252;-72
2023/03/18 02:18:35;;;;;;;;;;;11.40;77.20;;;;;;4971642;28;19941;-71
2023/03/18 02:21:21;;;;;;;;;;;11.50;77.20;;;;;;4971542;28;19922;-71
2023/03/18 02:23:51;;;;;;;;;;;11.40;77.20;;;;;;4971792;28;19914;-71
2023/03/18 02:26:23;;;;;;;;;;;11.40;77.30;;;;;;4972718;28;20355;-71
2023/03/18 02:28:50;;;;;;;;;;;11.40;77.40;;;;;;4957666;28;19913;-71
2023/03/18 02:31:17;;;;;;;;;;;11.40;77.50;;;;;;4975108;28;19917;-71
2023/03/18 02:33:43;;;;;;;;;;;11.30;77.40;;;;;;4974866;28;19914;-71
2023/03/18 02:36:10;;;;;;;;;;;11.30;77.50;;;;;;4957525;28;19914;-71
2023/03/18 02:38:39;;;;;;;;;;;11.30;77.50;;;;;;4975220;28;19981;-71
2023/03/18 02:41:05;;;;;;;;;;;11.30;78.20;;;;;;4974874;28;19914;-71
2023/03/18 02:43:31;;;;;;;;;;;11.30;77.60;;;;;;4974671;28;20268;-71
2023/03/18 02:46:09;;;;;;;;;;;11.30;77.70;;;;;;4957218;28;19980;-72
2023/03/18 02:48:37;;;;;;;;;;;11.30;77.80;;;;;;4973300;28;20016;-71
2023/03/18 02:51:04;;;;;;;;;;;11.20;77.80;;;;;;4974628;28;19917;-71
2023/03/18 02:53:29;;;;;;;;;;;11.20;77.90;;;;;;4974445;28;19985;-70
2023/03/18 02:55:55;;;;;;;;;;;11.20;77.90;;;;;;4974479;28;20352;-71
2023/03/18 02:58:21;;;;;;;;;;;11.20;77.80;;;;;;4974583;28;19918;-71
2023/03/18 03:00:46;;;;;;;;;;;11.30;77.80;;;;;;4974580;28;19933;-71
2023/03/18 03:03:12;;;;;;;;;;;11.30;77.70;;;;;;4973180;28;19910;-71
2023/03/18 03:05:37;;;;;;;;;;;11.30;77.70;;;;;;4974597;28;19906;-71
2023/03/18 03:08:04;;;;;;;;;;;11.30;77.60;;;;;;4974566;28;19906;-72
2023/03/18 03:10:29;;;;;;;;;;;11.30;77.50;;;;;;4974445;28;20348;-70
2023/03/18 03:12:55;;;;;;;;;;;11.30;77.40;;;;;;4974584;28;20058;-71
2023/03/18 03:15:21;;;;;;;;;;;11.40;77.50;;;;;;4974291;28;20375;-71
2023/03/18 03:17:47;;;;;;;;;;;11.40;77.40;;;;;;4973965;28;19925;-72
2023/03/18 03:20:14;;;;;;;;;;;11.40;77.40;;;;;;4972894;28;19914;-71
2023/03/18 03:22:40;;;;;;;;;;;11.30;77.40;;;;;;4956690;28;19914;-70
2023/03/18 03:25:07;;;;;;;;;;;11.40;77.60;;;;;;4972778;28;19917;-71
2023/03/18 03:27:32;;;;;;;;;;;11.40;77.60;;;;;;4974076;28;19925;-71
2023/03/18 03:29:58;;;;;;;;;;;11.40;77.60;;;;;;4974046;28;19910;-71
2023/03/18 03:32:23;;;;;;;;;;;11.40;77.70;;;;;;4974004;28;20028;-71
2023/03/18 03:34:49;;;;;;;;;;;11.30;77.80;;;;;;4974139;28;20423;-71
2023/03/18 03:37:15;;;;;;;;;;;11.30;77.90;;;;;;4956111;28;19941;-70
2023/03/18 03:39:41;;;;;;;;;;;11.30;78.00;;;;;;4956901;28;20311;-70
2023/03/18 03:42:06;;;;;;;;;;;11.30;78.10;;;;;;4974203;28;19961;-71
2023/03/18 03:44:32;;;;;;;;;;;11.30;78.10;;;;;;4973912;28;19906;-70
2023/03/18 03:46:57;;;;;;;;;;;11.30;78.10;;;;;;4972550;28;19982;-70
2023/03/18 03:49:23;;;;;;;;;;;11.20;78.10;;;;;;4973731;28;19906;-70
2023/03/18 03:51:48;;;;;;;;;;;11.30;78.20;;;;;;4974108;28;19906;-71
2023/03/18 03:54:14;;;;;;;;;;;11.30;78.20;;;;;;4974027;28;20351;-71
2023/03/18 03:56:40;;;;;;;;;;;11.30;78.20;;;;;;4973563;28;19921;-71
2023/03/18 03:59:05;;;;;;;;;;;11.40;78.30;;;;;;4973737;28;19941;-71
2023/03/18 04:01:31;;;;;;;;;;;11.40;78.30;;;;;;4973779;28;19910;-71
2023/03/18 04:03:57;;;;;;;;;;;11.30;78.30;;;;;;4973714;28;19982;-71
2023/03/18 04:06:22;;;;;;;;;;;11.40;78.40;;;;;;4973382;28;20002;-71
2023/03/18 04:08:48;;;;;;;;;;;11.30;78.40;;;;;;4973509;28;20324;-70
2023/03/18 04:11:14;;;;;;;;;;;11.30;78.40;;;;;;4973523;28;20331;-71
2023/03/18 04:13:40;;;;;;;;;;;11.30;78.50;;;;;;4973908;28;19937;-70
2023/03/18 04:16:06;;;;;;;;;;;11.30;78.50;;;;;;4973697;28;19913;-71
2023/03/18 04:18:32;;;;;;;;;;;11.30;78.60;;;;;;4952352;28;20389;-71
2023/03/18 04:20:57;;;;;;;;;;;11.30;78.70;;;;;;4973346;28;19965;-71
2023/03/18 04:23:23;;;;;;;;;;;11.30;78.80;;;;;;4973256;28;19956;-71
2023/03/18 04:25:48;;;;;;;;;;;11.20;78.80;;;;;;4973573;28;19918;-71
2023/03/18 04:28:14;;;;;;;;;;;11.30;79.00;;;;;;4973524;28;20371;-71
2023/03/18 04:30:39;;;;;;;;;;;11.20;78.90;;;;;;4973301;28;19972;-71
2023/03/18 04:33:05;;;;;;;;;;;11.20;79.00;;;;;;4973300;28;19913;-71
2023/03/18 04:35:31;;;;;;;;;;;11.20;79.80;;;;;;4973371;28;19998;-71
2023/03/18 04:37:56;;;;;;;;;;;11.20;79.10;;;;;;4973307;28;19981;-71
2023/03/18 04:40:22;;;;;;;;;;;11.20;79.20;;;;;;4973120;28;19922;-71
2023/03/18 04:42:47;;;;;;;;;;;11.10;79.20;;;;;;4973196;28;19910;-71
2023/03/18 04:45:14;;;;;;;;;;;11.10;79.30;;;;;;4973030;28;19913;-71
2023/03/18 04:47:41;;;;;;;;;;;11.20;79.40;;;;;;4972097;28;19925;-71
2023/03/18 04:50:10;;;;;;;;;;;11.10;79.40;;;;;;4973214;28;20016;-72
2023/03/18 04:52:37;;;;;;;;;;;11.10;80.10;;;;;;4973157;28;19945;-71
2023/03/18 04:55:03;;;;;;;;;;;11.10;79.60;;;;;;4972931;28;19906;-71
2023/03/18 04:57:28;;;;;;;;;;;11.10;79.70;;;;;;4972636;28;19914;-71
2023/03/18 04:59:55;;;;;;;;;;;11.10;79.80;;;;;;4972641;28;20004;-71
2023/03/18 05:02:20;;;;;;;;;;;11.10;79.80;;;;;;4972804;28;19921;-70
2023/03/18 05:04:46;;;;;;;;;;;11.10;80.40;;;;;;4972807;28;19922;-71
2023/03/18 05:07:14;;;;;;;;;;;11.10;79.80;;;;;;4973101;28;19921;-71
2023/03/18 05:09:40;;;;;;;;;;;11.10;79.90;;;;;;4972884;28;20247;-72
2023/03/18 05:12:09;;;;;;;;;;;11.20;80.00;;;;;;4972956;28;19987;-71
2023/03/18 05:14:34;;;;;;;;;;;11.00;79.90;;;;;;4968205;28;20304;-71
2023/03/18 05:17:01;;;;;;;;;;;11.10;80.10;;;;;;4953565;29;19906;-71
2023/03/18 05:19:27;;;;;;;;;;;11.10;80.10;;;;;;4971233;28;19918;-72
2023/03/18 05:21:52;;;;;;;;;;;11.10;80.20;;;;;;4972851;28;19906;-71
2023/03/18 05:24:18;;;;;;;;;;;11.10;80.20;;;;;;4972709;28;19914;-71
2023/03/18 05:26:43;;;;;;;;;;;11.00;80.30;;;;;;4972547;28;20252;-71
2023/03/18 05:29:09;;;;;;;;;;;11.00;80.30;;;;;;4972486;28;19929;-71
2023/03/18 05:31:35;;;;;;;;;;;11.00;80.40;;;;;;4973047;28;19913;-71
2023/03/18 05:34:01;;;;;;;;;;;11.00;80.50;;;;;;4972408;28;19914;-72
2023/03/18 05:36:28;;;;;;;;;;;11.10;80.60;;;;;;4972543;28;19906;-71
2023/03/18 05:38:54;;;;;;;;;;;11.00;80.50;;;;;;4972259;28;19965;-71
2023/03/18 05:41:19;;;;;;;;;;;11.10;80.60;;;;;;4972935;28;19949;-71
2023/03/18 05:43:45;;;;;;;;;;;11.10;80.70;;;;;;4972730;28;20263;-71
2023/03/18 05:46:10;;;;;;;;;;;11.00;80.70;;;;;;4972565;28;20323;-71
2023/03/18 05:48:36;;;;;;;;;;;11.00;80.70;;;;;;4972724;28;19930;-71
2023/03/18 05:51:03;;;;;;;;;;;11.00;80.70;;;;;;4972720;28;19910;-71
2023/03/18 05:53:28;;;;;;;;;;;11.00;80.70;;;;;;4972751;28;20283;-71
2023/03/18 05:55:55;;;;;;;;;;;11.00;80.70;;;;;;4972321;28;19928;-71
2023/03/18 05:58:20;;;;;;;;;;;11.00;80.70;;;;;;4972400;28;19968;-71
2023/03/18 06:00:46;;;;;;;;;;;11.00;80.80;;;;;;4970928;28;19925;-71
2023/03/18 06:03:11;;;;;;;;;;;11.00;80.80;;;;;;4972517;28;19961;-71
2023/03/18 06:05:37;;;;;;;;;;;11.00;80.80;;;;;;4972295;28;19918;-71
2023/03/18 06:08:02;;;;;;;;;;;11.10;80.90;;;;;;4972295;28;20382;-71
2023/03/18 06:10:28;;;;;;;;;;;11.00;80.80;;;;;;4972310;28;19906;-71
2023/03/18 06:12:55;;;;;;;;;;;11.10;80.90;;;;;;4972075;28;19953;-71
2023/03/18 06:15:21;;;;;;;;;;;11.10;80.80;;;;;;4971956;28;19921;-71
2023/03/18 06:17:46;;;;;;;;;;;11.10;80.80;;;;;;4972212;28;19910;-71
2023/03/18 06:20:13;;;;;;;;;;;11.20;80.90;;;;;;4972203;28;20430;-71
2023/03/18 06:22:38;;;;;;;;;;;11.10;80.80;;;;;;4972035;28;19977;-71
2023/03/18 06:25:06;;;;;;;;;;;11.10;80.80;;;;;;4972108;28;20001;-71
2023/03/18 06:27:32;;;;;;;;;;;11.20;80.90;;;;;;4971978;28;19961;-71
2023/03/18 06:30:01;;;;;;;;;;;11.20;80.90;;;;;;4972045;28;19910;-71
2023/03/18 06:32:28;;;;;;;;;;;11.20;80.90;;;;;;4972052;28;20340;-71
2023/03/18 06:34:54;;;;;;;;;;;11.20;80.90;;;;;;4972443;28;19910;-71
2023/03/18 06:37:20;;;;;;;;;;;11.20;81.00;;;;;;4954524;28;20328;-71
2023/03/18 06:39:46;;;;;;;;;;;11.20;81.00;;;;;;4971787;28;19924;-71
2023/03/18 06:42:11;;;;;;;;;;;11.20;81.00;;;;;;4971723;28;19914;-71
2023/03/18 06:44:38;;;;;;;;;;;11.20;81.00;;;;;;4971746;28;20016;-71
2023/03/18 06:47:04;;;;;;;;;;;11.20;81.00;;;;;;4971838;28;19921;-70
2023/03/18 06:49:30;;;;;;;;;;;11.20;81.00;;;;;;4971743;28;19913;-71
2023/03/18 06:51:56;;;;;;;;;;;11.30;81.00;;;;;;4952901;28;19914;-71
2023/03/18 06:54:21;;;;;;;;;;;11.40;81.00;;;;;;4971778;28;19921;-71
2023/03/18 06:56:47;;;;;;;;;;;11.30;81.00;;;;;;4971585;28;19914;-71
2023/03/18 06:59:12;;;;;;;;;;;11.30;80.90;;;;;;4971531;28;19948;-71
2023/03/18 07:01:38;;;;;;;;;;;11.40;81.00;;;;;;4971687;28;19906;-71
2023/03/18 07:04:05;;;;;;;;;;;11.40;81.10;;;;;;4971682;28;19960;-72
2023/03/18 07:06:31;;;;;;;;;;;11.50;81.20;;;;;;4954577;28;19916;-72
2023/03/18 07:08:57;;;;;;;;;;;11.50;81.10;;;;;;4971682;28;19906;-72
2023/03/18 07:11:24;;;;;;;;;;;11.40;81.00;;;;;;4972655;28;19906;-71
2023/03/18 07:13:50;;;;;;;;;;;11.50;81.00;;;;;;4973995;28;20422;-72
2023/03/18 07:16:16;;;;;;;;;;;11.60;81.20;;;;;;4975037;28;19989;-72
2023/03/18 07:18:41;;;;;;;;;;;11.50;81.10;;;;;;4955742;28;20086;-71
2023/03/18 07:21:08;;;;;;;;;;;11.60;81.20;;;;;;4974912;28;20479;-72
2023/03/18 07:23:34;;;;;;;;;;;11.60;81.20;;;;;;4973615;28;19913;-70
2023/03/18 07:25:59;;;;;;;;;;;11.60;81.20;;;;;;4974659;28;19906;-69
2023/03/18 07:28:25;;;;;;;;;;;11.80;81.20;;;;;;4974565;28;19906;-69
2023/03/18 07:30:50;;;;;;;;;;;11.80;80.90;;;;;;4974488;28;19910;-70
2023/03/18 07:33:16;;;;;;;;;;;11.90;80.80;;;;;;4973167;28;19929;-69
2023/03/18 07:35:42;;;;;;;;;;;12.00;80.70;;;;;;4973281;28;19921;-70
2023/03/18 07:38:08;;;;;;;;;;;11.90;80.60;;;;;;4973201;28;19918;-70
2023/03/18 07:40:34;;;;;;;;;;;12.00;80.70;;;;;;4973037;28;19957;-70
2023/03/18 07:43:00;;;;;;;;;;;12.00;80.80;;;;;;4974399;28;19921;-70
2023/03/18 07:45:25;;;;;;;;;;;12.20;80.90;;;;;;4974293;28;20336;-70
2023/03/18 07:47:51;;;;;;;;;;;12.10;80.80;;;;;;4973059;28;20003;-70
2023/03/18 07:50:17;;;;;;;;;;;12.20;80.80;;;;;;4974228;28;20249;-70
2023/03/18 07:52:43;;;;;;;;;;;12.20;80.70;;;;;;4974274;28;19949;-70
2023/03/18 07:55:09;;;;;;;;;;;12.30;80.70;;;;;;4974256;28;19976;-70
2023/03/18 07:57:35;;;;;;;;;;;12.30;80.70;;;;;;4953068;28;20353;-70
2023/03/18 08:00:01;;;;;;;;;;;12.40;80.70;;;;;;4974238;28;19969;-70
2023/03/18 08:02:27;;;;;;;;;;;12.40;80.60;;;;;;4972890;28;19913;-70
2023/03/18 08:04:53;;;;;;;;;;;12.50;80.60;;;;;;4974021;28;19957;-71
2023/03/18 08:07:18;;;;;;;;;;;12.60;80.60;;;;;;4972632;28;20249;-70
2023/03/18 08:09:44;;;;;;;;;;;12.60;80.50;;;;;;4973770;28;19913;-70
2023/03/18 08:12:09;;;;;;;;;;;12.70;80.40;;;;;;4973836;28;19913;-70
2023/03/18 08:14:35;;;;;;;;;;;12.80;80.40;;;;;;4972482;28;19937;-71
2023/03/18 08:17:01;;;;;;;;;;;12.90;80.20;;;;;;4974200;28;19913;-70
2023/03/18 08:19:27;;;;;;;;;;;13.00;80.20;;;;;;4973846;28;20000;-70
2023/03/18 08:21:53;;;;;;;;;;;13.00;80.20;;;;;;4973416;28;20398;-70
2023/03/18 08:24:18;;;;;;;;;;;12.90;80.10;;;;;;4972991;28;20068;-70
2023/03/18 08:26:44;;;;;;;;;;;13.10;80.10;;;;;;4972434;28;19925;-70
2023/03/18 08:29:09;;;;;;;;;;;13.00;80.00;;;;;;4973540;28;19918;-71
2023/03/18 08:31:35;;;;;;;;;;;13.10;80.10;;;;;;4973457;28;19914;-71
2023/03/18 08:34:00;;;;;;;;;;;13.10;80.20;;;;;;4972311;28;19965;-71
2023/03/18 08:36:27;;;;;;;;;;;13.10;80.30;;;;;;4973631;28;19914;-71
2023/03/18 08:38:53;;;;;;;;;;;13.30;80.40;;;;;;4973336;28;19926;-71
2023/03/18 08:41:19;;;;;;;;;;;13.40;80.20;;;;;;4973459;28;19913;-71
2023/03/18 08:43:45;;;;;;;;;;;13.30;80.00;;;;;;4973551;28;19969;-71
2023/03/18 08:46:11;;;;;;;;;;;13.40;79.90;;;;;;4956214;28;19906;-71
2023/03/18 08:48:37;;;;;;;;;;;13.30;80.10;;;;;;4973476;28;19913;-71
2023/03/18 08:51:03;;;;;;;;;;;13.40;80.20;;;;;;4973508;28;20000;-71
2023/03/18 08:53:29;;;;;;;;;;;13.40;80.10;;;;;;4972373;28;20351;-70
2023/03/18 08:55:55;;;;;;;;;;;13.50;80.00;;;;;;4956783;28;19960;-70
2023/03/18 08:58:20;;;;;;;;;;;13.60;80.00;;;;;;4973983;28;19932;-70
2023/03/18 09:00:46;;;;;;;;;;;13.60;80.00;;;;;;4973525;28;19906;-70
2023/03/18 09:03:12;;;;;;;;;;;13.70;80.00;;;;;;4955954;28;19918;-70
2023/03/18 09:05:38;;;;;;;;;;;13.80;80.00;;;;;;4973252;28;19906;-70
2023/03/18 09:08:04;;;;;;;;;;;13.90;79.80;;;;;;4973208;28;20370;-70
2023/03/18 09:10:29;;;;;;;;;;;14.00;79.60;;;;;;4973391;28;19906;-70
2023/03/18 09:12:55;;;;;;;;;;;14.20;79.60;;;;;;4972999;28;19914;-70
2023/03/18 09:15:21;;;;;;;;;;;14.20;79.30;;;;;;4973040;28;19914;-70
2023/03/18 09:17:47;;;;;;;;;;;14.20;79.40;;;;;;4973093;28;19914;-70
2023/03/18 09:20:14;;;;;;;;;;;14.20;79.40;;;;;;4973158;28;19925;-70
2023/03/18 09:22:40;;;;;;;;;;;14.40;79.30;;;;;;4973220;28;19913;-70
2023/03/18 09:25:06;;;;;;;;;;;14.40;79.10;;;;;;4973022;28;19961;-70
2023/03/18 09:27:32;;;;;;;;;;;14.40;79.10;;;;;;4972973;28;19969;-70
2023/03/18 09:29:58;;;;;;;;;;;14.30;79.20;;;;;;4973103;28;19922;-70
2023/03/18 09:32:24;;;;;;;;;;;14.30;79.40;;;;;;4972954;28;19907;-70
2023/03/18 09:34:50;;;;;;;;;;;14.40;79.60;;;;;;4971234;28;19914;-70
2023/03/18 09:37:17;;;;;;;;;;;14.50;79.60;;;;;;4973043;28;19906;-70
2023/03/18 09:39:43;;;;;;;;;;;14.50;79.40;;;;;;4972741;28;19918;-70
2023/03/18 09:42:28;;;;;;;;;;;14.60;79.50;;;;;;4955433;28;19960;-70
2023/03/18 09:44:55;;;;;;;;;;;14.60;79.50;;;;;;4972230;28;19988;-70
2023/03/18 09:47:35;;;;;;;;;;;14.70;79.50;;;;;;4973071;28;19906;-70
2023/03/18 09:50:12;;;;;;;;;;;14.70;79.50;;;;;;4972855;28;19913;-70
2023/03/18 09:52:42;;;;;;;;;;;14.70;79.90;;;;;;4971393;28;19914;-71
2023/03/18 09:55:17;;;;;;;;;;;14.80;79.50;;;;;;4971465;28;19913;-71
2023/03/18 09:57:45;;;;;;;;;;;14.80;79.40;;;;;;4972699;28;19997;-70
2023/03/18 10:00:19;;;;;;;;;;;14.80;79.30;;;;;;4972637;28;19945;-70
2023/03/18 10:02:57;;;;;;;;;;;14.90;79.20;;;;;;4972758;28;19910;-70
2023/03/18 10:05:26;;;;;;;;;;;14.90;79.20;;;;;;4972737;28;19993;-70
2023/03/18 10:07:55;;;;;;;;;;;14.90;79.30;;;;;;4972813;28;19961;-71
2023/03/18 10:10:37;;;;;;;;;;;14.90;79.30;;;;;;4972519;28;20320;-71
2023/03/18 10:13:07;;;;;;;;;;;15.00;79.20;;;;;;4972613;28;19932;-70
2023/03/18 10:15:35;;;;;;;;;;;15.10;79.30;;;;;;4972600;28;19964;-70
2023/03/18 10:18:04;;;;;;;;;;;15.10;79.20;;;;;;4972595;28;19925;-70
2023/03/18 10:20:43;;;;;;;;;;;15.10;79.20;;;;;;4954266;28;19928;-70
2023/03/18 10:23:22;;;;;;;;;;;15.00;79.20;;;;;;4971340;28;19910;-70
2023/03/18 10:25:51;;;;;;;;;;;15.20;79.30;;;;;;4972133;28;19921;-70
2023/03/18 10:28:28;;;;;;;;;;;15.20;79.30;;;;;;4972364;28;19913;-71
2023/03/18 10:31:14;;;;;;;;;;;15.10;79.30;;;;;;4972216;28;19906;-71
2023/03/18 10:33:43;;;;;;;;;;;15.10;79.40;;;;;;4972210;28;19906;-70
2023/03/18 10:36:17;;;;;;;;;;;15.20;79.30;;;;;;4972168;28;19906;-71
2023/03/18 10:38:45;;;;;;;;;;;15.20;79.10;;;;;;4970733;28;20375;-70
2023/03/18 10:41:14;;;;;;;;;;;15.20;79.10;;;;;;4972279;28;19910;-70
2023/03/18 10:43:40;;;;;;;;;;;15.20;79.10;;;;;;4972305;28;19906;-71
2023/03/18 10:46:06;;;;;;;;;;;15.30;79.20;;;;;;4973095;28;19921;-71
2023/03/18 10:48:33;;;;;;;;;;;15.40;79.10;;;;;;4974139;28;19914;-70
2023/03/18 10:51:09;;;;;;;;;;;15.50;79.10;;;;;;4975514;28;19906;-70
2023/03/18 10:53:45;;;;;;;;;;;15.70;78.90;;;;;;4975254;28;19906;-70
2023/03/18 10:56:11;;;;;;;;;;;15.90;78.50;;;;;;4975354;28;19985;-70
2023/03/18 10:58:38;;;;;;;;;;;16.10;78.10;;;;;;4974952;28;19918;-70
2023/03/18 11:01:07;;;;;;;;;;;16.30;77.60;;;;;;4975102;28;19926;-70
2023/03/18 11:03:35;;;;;;;;;;;16.40;77.20;;;;;;4975254;28;19964;-70
2023/03/18 11:06:03;;;;;;;;;;;16.50;77.20;;;;;;4973918;28;20446;-70
2023/03/18 11:08:34;;;;;;;;;;;16.60;77.00;;;;;;4975017;28;20271;-70
2023/03/18 11:11:10;;;;;;;;;;;16.60;77.00;;;;;;4975517;28;20364;-70
2023/03/18 11:13:36;;;;;;;;;;;16.70;77.00;;;;;;4974939;28;19910;-70
2023/03/18 11:16:03;;;;;;;;;;;16.70;76.70;;;;;;4974985;28;19906;-71
2023/03/18 11:18:31;;;;;;;;;;;16.70;76.60;;;;;;4975124;28;19918;-70
2023/03/18 11:20:59;;;;;;;;;;;16.80;76.80;;;;;;4974985;28;20312;-70
2023/03/18 11:23:55;;;;;;;;;;;16.80;77.40;;;;;;4975058;28;19906;-70
2023/03/18 11:26:20;;;;;;;;;;;16.90;76.70;;;;;;4974775;28;19906;-71
2023/03/18 11:28:46;;;;;;;;;;;17.00;76.40;;;;;;4974817;28;19906;-70
2023/03/18 11:31:15;;;;;;;;;;;17.20;76.20;;;;;;4975005;28;19913;-70
2023/03/18 11:33:41;;;;;;;;;;;17.40;76.10;;;;;;4974863;28;19906;-70
2023/03/18 11:36:08;;;;;;;;;;;17.40;75.90;;;;;;4974800;28;20371;-71
2023/03/18 11:38:35;;;;;;;;;;;17.40;75.80;;;;;;4974533;28;20027;-70
2023/03/18 11:41:12;;;;;;;;;;;17.50;76.00;;;;;;4974566;28;19913;-70
2023/03/18 11:43:38;;;;;;;;;;;17.50;75.70;;;;;;4957044;28;19921;-71
2023/03/18 11:46:06;;;;;;;;;;;17.60;75.90;;;;;;4974470;28;20352;-69
2023/03/18 11:48:36;;;;;;;;;;;17.70;75.50;;;;;;4974389;28;19925;-69
2023/03/18 11:51:21;;;;;;;;;;;17.80;75.40;;;;;;4974329;28;20000;-69
2023/03/18 11:53:54;;;;;;;;;;;17.80;75.10;;;;;;4974314;28;20009;-68
2023/03/18 11:56:27;;;;;;;;;;;17.90;75.20;;;;;;4974475;28;20388;-70
2023/03/18 11:58:59;;;;;;;;;;;17.80;75.10;;;;;;4974454;28;20020;-69
2023/03/18 12:01:34;;;;;;;;;;;17.80;75.20;;;;;;4974165;28;20356;-69
2023/03/18 12:04:19;;;;;;;;;;;17.90;75.30;;;;;;4974828;28;19957;-70
2023/03/18 12:06:53;;;;;;;;;;;17.80;74.90;;;;;;4974206;28;19912;-69
2023/03/18 12:09:25;;;;;;;;;;;17.70;75.20;;;;;;4974195;28;19906;-69
2023/03/18 12:11:58;;;;;;;;;;;17.60;75.60;;;;;;4974398;28;19918;-69
2023/03/18 12:14:44;;;;;;;;;;;17.60;75.90;;;;;;4973911;28;19906;-69
2023/03/18 12:17:20;;;;;;;;;;;17.60;75.90;;;;;;4972686;28;20421;-69
2023/03/18 12:19:55;;;;;;;;;;;17.50;76.20;;;;;;4973913;28;20335;-69
2023/03/18 12:22:32;;;;;;;;;;;17.50;76.40;;;;;;4973863;28;19906;-69
2023/03/18 12:25:05;;;;;;;;;;;17.50;76.50;;;;;;4973846;28;19993;-69
2023/03/18 12:27:51;;;;;;;;;;;17.50;76.40;;;;;;4973835;28;19906;-69
2023/03/18 12:30:31;;;;;;;;;;;17.60;76.50;;;;;;4973969;28;19980;-69
2023/03/18 12:33:13;;;;;;;;;;;17.40;76.70;;;;;;4974019;28;19913;-69
2023/03/18 12:35:44;;;;;;;;;;;17.40;76.90;;;;;;4973886;28;20364;-70
2023/03/18 12:38:30;;;;;;;;;;;17.40;77.10;;;;;;4974313;28;19918;-69
2023/03/18 12:41:06;;;;;;;;;;;17.30;77.20;;;;;;4973531;28;19957;-69
2023/03/18 12:43:45;;;;;;;;;;;17.20;77.30;;;;;;4973603;28;19960;-69
2023/03/18 12:46:20;;;;;;;;;;;17.20;77.40;;;;;;4973601;28;19978;-69
2023/03/18 12:48:51;;;;;;;;;;;17.30;77.40;;;;;;4954773;28;20321;-69
2023/03/18 12:51:22;;;;;;;;;;;17.30;77.20;;;;;;4973872;28;19996;-69
2023/03/18 12:53:51;;;;;;;;;;;17.30;77.10;;;;;;4973980;28;19914;-68
2023/03/18 12:56:20;;;;;;;;;;;17.30;77.00;;;;;;4973566;28;19953;-69
2023/03/18 12:58:49;;;;;;;;;;;17.20;77.00;;;;;;4973340;28;20438;-69
2023/03/18 13:01:26;;;;;;;;;;;17.10;77.20;;;;;;4973686;28;19921;-69
2023/03/18 13:03:55;;;;;;;;;;;17.00;77.50;;;;;;4973169;28;19906;-69
2023/03/18 13:06:23;;;;;;;;;;;16.90;77.80;;;;;;4973262;28;19906;-68
2023/03/18 13:09:07;;;;;;;;;;;16.90;77.90;;;;;;4972563;28;20076;-68
2023/03/18 13:11:47;;;;;;;;;;;16.90;78.00;;;;;;4973286;28;19979;-68
2023/03/18 13:14:26;;;;;;;;;;;16.80;78.00;;;;;;4973003;28;19936;-68
2023/03/18 13:16:52;;;;;;;;;;;16.80;78.10;;;;;;4972955;28;19906;-69
2023/03/18 13:19:18;;;;;;;;;;;16.80;78.10;;;;;;4972824;28;19925;-68
2023/03/18 13:21:46;;;;;;;;;;;16.70;78.10;;;;;;4972880;28;19906;-69
2023/03/18 13:24:18;;;;;;;;;;;16.70;78.20;;;;;;4972959;28;19906;-68
2023/03/18 13:26:50;;;;;;;;;;;16.60;78.20;;;;;;4972794;28;19937;-68
2023/03/18 13:29:30;;;;;;;;;;;16.50;78.20;;;;;;4973178;28;19906;-68
2023/03/18 13:32:05;;;;;;;;;;;16.50;78.20;;;;;;4972807;28;19906;-68
2023/03/18 13:34:41;;;;;;;;;;;16.50;78.30;;;;;;4972778;28;19917;-68
2023/03/18 13:37:14;;;;;;;;;;;16.40;78.40;;;;;;4972556;28;19922;-68
2023/03/18 13:39:59;;;;;;;;;;;16.40;78.40;;;;;;4972576;28;20344;-68
2023/03/18 13:42:29;;;;;;;;;;;16.40;78.30;;;;;;4972612;28;19914;-68
2023/03/18 13:45:15;;;;;;;;;;;16.50;78.20;;;;;;4972812;28;19983;-68
2023/03/18 13:47:41;;;;;;;;;;;16.40;77.90;;;;;;4971595;28;19913;-69
2023/03/18 13:50:21;;;;;;;;;;;16.50;77.70;;;;;;4972691;28;20000;-68
2023/03/18 13:52:47;;;;;;;;;;;16.60;77.60;;;;;;4972541;28;19912;-68
2023/03/18 13:55:31;;;;;;;;;;;16.60;77.50;;;;;;4972585;28;19906;-68
2023/03/18 13:58:17;;;;;;;;;;;16.50;77.40;;;;;;4954588;28;19906;-68
2023/03/18 14:00:45;;;;;;;;;;;16.50;77.50;;;;;;4971754;28;19913;-68
2023/03/18 14:03:15;;;;;;;;;;;16.60;77.40;;;;;;4954542;28;19909;-68
2023/03/18 14:05:41;;;;;;;;;;;16.50;77.40;;;;;;4972679;28;19906;-68
2023/03/18 14:08:23;;;;;;;;;;;16.60;77.30;;;;;;4971237;28;19906;-69
2023/03/18 14:10:49;;;;;;;;;;;16.60;77.30;;;;;;4973090;28;20304;-69
2023/03/18 14:13:25;;;;;;;;;;;16.60;77.30;;;;;;4972600;28;19913;-69
2023/03/18 14:15:50;;;;;;;;;;;16.60;77.20;;;;;;4955258;28;19906;-68
2023/03/18 14:18:18;;;;;;;;;;;16.50;77.20;;;;;;4972419;28;20442;-67
2023/03/18 14:20:43;;;;;;;;;;;16.60;77.20;;;;;;4974079;28;20366;-67
2023/03/18 14:23:23;;;;;;;;;;;16.50;77.00;;;;;;4974570;28;20009;-69
2023/03/18 14:25:53;;;;;;;;;;;16.40;77.20;;;;;;4975895;28;19914;-68